Time;durP1;ratioP1;P1;durP2;ratioP2;P2;SDS_P1;SDS_P2;PMS_P1;PMS_P2;Temp;Humidity;BMP_temperature;BMP_pressure;BME280_temperature;BME280_humidity;BME280_pressure;Samples;Min_cycle;Max_cycle;Signal;HPM_P1;HPM_P2
2022/06/20 00:00:06;;;;;;;;;35.50;32.00;;;;;19.37;66.49;100438.22;5035391;28;47580;-85
2022/06/20 00:02:34;;;;;;;;;39.00;31.50;;;;;19.37;67.35;100418.81;5035274;28;47197;-85
2022/06/20 00:05:02;;;;;;;;;31.00;29.00;;;;;19.48;66.53;100429.09;5047606;28;46331;-85
2022/06/20 00:07:27;;;;;;;;;33.25;30.25;;;;;19.50;66.52;100430.56;5060188;28;45760;-85
2022/06/20 00:09:53;;;;;;;;;33.50;29.50;;;;;19.54;67.03;100426.56;5052634;28;46362;-85
2022/06/20 00:12:22;;;;;;;;;32.00;30.75;;;;;19.51;66.73;100408.31;5069663;28;47073;-85
2022/06/20 00:14:52;;;;;;;;;30.75;29.50;;;;;19.56;66.58;100431.72;5039548;28;46157;-84
2022/06/20 00:17:17;;;;;;;;;30.25;30.00;;;;;19.53;66.39;100438.22;5057420;28;45769;-84
2022/06/20 00:19:43;;;;;;;;;33.50;31.75;;;;;19.54;66.91;100437.19;5057557;28;48265;-85
2022/06/20 00:22:11;;;;;;;;;34.00;30.00;;;;;19.63;66.71;100451.31;5035912;28;47190;-84
2022/06/20 00:24:37;;;;;;;;;33.25;31.50;;;;;19.67;66.73;100453.44;5040722;28;46002;-86
2022/06/20 00:27:06;;;;;;;;;33.50;30.50;;;;;19.72;66.30;100460.06;5059321;28;45880;-85
2022/06/20 00:29:36;;;;;;;;;31.75;29.75;;;;;19.73;66.41;100449.28;5050797;28;45801;-84
2022/06/20 00:32:04;;;;;;;;;28.50;26.50;;;;;19.73;66.31;100421.84;5052490;28;47843;-86
2022/06/20 00:34:29;;;;;;;;;31.75;30.00;;;;;19.79;66.39;100415.84;5051516;28;46379;-85
2022/06/20 00:36:55;;;;;;;;;30.50;28.75;;;;;19.78;66.67;100391.09;5051462;28;45634;-84
2022/06/20 00:39:22;;;;;;;;;35.00;31.75;;;;;19.83;66.26;100358.66;5030452;28;48293;-86
2022/06/20 00:41:48;;;;;;;;;29.50;27.75;;;;;19.79;66.80;100342.25;5029367;28;47275;-85
2022/06/20 00:44:19;;;;;;;;;31.50;27.25;;;;;19.80;66.77;100346.56;5048679;28;45806;-85
2022/06/20 00:46:49;;;;;;;;;28.75;27.00;;;;;19.82;66.51;100375.59;5061114;28;45622;-84
2022/06/20 00:49:22;;;;;;;;;29.50;29.25;;;;;19.84;66.22;100397.53;5061685;28;45743;-85
2022/06/20 00:52:00;;;;;;;;;30.25;28.50;;;;;19.80;66.27;100421.00;5032791;28;47515;-85
2022/06/20 00:54:39;;;;;;;;;30.50;26.75;;;;;19.83;66.48;100441.09;5038560;28;45737;-85
2022/06/20 00:57:27;;;;;;;;;28.75;27.25;;;;;19.81;66.12;100451.88;5035570;28;45996;-86
2022/06/20 01:00:17;;;;;;;;;33.25;30.00;;;;;19.79;66.17;100450.41;5049592;28;48033;-85
2022/06/20 01:02:50;;;;;;;;;33.25;29.75;;;;;19.65;66.41;100441.31;5045443;28;48413;-85
2022/06/20 01:05:22;;;;;;;;;30.50;30.00;;;;;19.75;66.78;100463.22;5054779;28;45611;-85
2022/06/20 01:07:55;;;;;;;;;29.25;27.75;;;;;19.79;67.00;100471.69;5038701;28;46020;-85
2022/06/20 01:10:23;;;;;;;;;26.50;26.00;;;;;19.75;67.69;100468.56;5037081;28;48906;-85
2022/06/20 01:12:58;;;;;;;;;31.00;27.75;;;;;19.76;67.00;100461.41;5039953;28;48558;-86
2022/06/20 01:15:33;;;;;;;;;29.00;28.50;;;;;19.76;67.74;100466.72;5058173;28;45789;-87
2022/06/20 01:17:58;;;;;;;;;27.25;26.00;;;;;19.66;67.45;100451.78;5057326;28;45689;-86
2022/06/20 01:20:35;;;;;;;;;30.50;29.00;;;;;19.70;67.71;100452.28;5059614;28;45653;-86
2022/06/20 01:23:07;;;;;;;;;26.00;25.75;;;;;19.68;67.67;100452.44;5052990;28;46490;-85
2022/06/20 01:26:05;;;;;;;;;27.75;26.50;;;;;19.58;67.55;100421.75;5055102;28;45874;-86
2022/06/20 01:28:36;;;;;;;;;27.75;27.25;;;;;19.60;67.87;100417.91;4993856;28;46012;-85
2022/06/20 01:31:03;;;;;;;;;24.25;23.00;;;;;19.52;68.24;100385.22;4980367;28;47799;-85
2022/06/20 01:33:30;;;;;;;;;25.75;25.00;;;;;19.45;68.33;100366.47;4998517;28;46351;-85
2022/06/20 01:38:44;;;;;;;;;30.50;27.00;;;;;19.43;69.12;100335.75;4993782;28;46121;-86
2022/06/20 01:43:58;;;;;;;;;29.75;24.00;;;;;19.38;68.21;100330.13;4993378;28;46323;-85
2022/06/20 01:46:29;;;;;;;;;26.75;25.00;;;;;19.41;67.90;100327.09;4994222;28;45800;-85
2022/06/20 01:48:59;;;;;;;;;24.50;23.75;;;;;19.45;68.46;100312.50;4982909;28;45977;-85
2022/06/20 01:51:33;;;;;;;;;25.50;22.25;;;;;19.45;68.28;100272.66;5000314;28;45781;-86
2022/06/20 01:54:00;;;;;;;;;24.75;24.25;;;;;19.42;68.67;100225.97;4984530;28;48211;-86
2022/06/20 01:56:27;;;;;;;;;23.25;21.75;;;;;19.39;68.83;100159.06;4977962;28;45817;-85
2022/06/20 01:59:24;;;;;;;;;24.25;23.25;;;;;19.43;68.53;100083.31;4992883;28;46008;-84
2022/06/20 02:01:52;;;;;;;;;24.75;24.50;;;;;19.34;68.57;100032.06;4978944;28;47761;-83
2022/06/20 02:04:23;;;;;;;;;24.25;22.75;;;;;19.31;68.84;100043.06;5011723;28;46690;-84
2022/06/20 02:06:50;;;;;;;;;28.50;26.00;;;;;19.23;68.69;100022.69;5071500;28;45776;-84
2022/06/20 02:09:16;;;;;;;;;27.00;27.00;;;;;19.24;68.47;100042.13;5063501;28;45602;-84
2022/06/20 02:11:45;;;;;;;;;27.75;26.25;;;;;19.19;68.46;100063.09;5058691;28;45890;-84
2022/06/20 02:14:23;;;;;;;;;25.75;25.25;;;;;19.09;68.83;100100.50;5047281;28;47455;-84
2022/06/20 02:16:54;;;;;;;;;26.00;23.00;;;;;19.13;69.00;100136.31;5056033;28;45833;-84
2022/06/20 02:19:27;;;;;;;;;25.00;23.75;;;;;19.07;69.09;100134.38;5054098;28;45744;-84
2022/06/20 02:22:00;;;;;;;;;26.25;23.75;;;;;19.10;68.66;100157.09;5030441;28;47384;-84
2022/06/20 02:24:31;;;;;;;;;23.75;22.50;;;;;19.10;68.71;100176.53;5048595;28;46110;-84
2022/06/20 02:27:01;;;;;;;;;26.00;25.25;;;;;19.13;68.58;100183.28;5039977;28;45880;-84
2022/06/20 02:29:29;;;;;;;;;25.00;23.75;;;;;19.18;68.65;100207.50;5053985;28;45858;-84
2022/06/20 02:32:08;;;;;;;;;28.00;24.00;;;;;19.19;68.76;100235.72;5053294;28;45803;-86
2022/06/20 02:34:34;;;;;;;;;26.00;24.00;;;;;19.20;68.38;100256.81;5035059;28;47784;-85
2022/06/20 02:37:03;;;;;;;;;26.25;22.75;;;;;19.22;68.46;100277.88;5037109;28;45974;-86
2022/06/20 02:39:29;;;;;;;;;28.50;25.75;;;;;19.21;68.76;100281.53;5032410;28;45696;-85
2022/06/20 02:42:00;;;;;;;;;26.25;25.25;;;;;19.26;68.91;100290.66;5044755;28;45762;-85
2022/06/20 02:44:27;;;;;;;;;29.00;27.25;;;;;19.21;69.28;100295.66;5035120;28;48362;-86
2022/06/20 02:46:55;;;;;;;;;20.50;19.50;;;;;19.23;69.22;100306.91;5020789;28;45922;-85
2022/06/20 02:49:27;;;;;;;;;29.75;26.25;;;;;19.12;69.61;100307.28;5042364;28;45919;-85
2022/06/20 02:51:54;;;;;;;;;30.75;27.25;;;;;19.09;69.08;100328.06;5053296;28;46535;-85
2022/06/20 02:54:27;;;;;;;;;30.75;27.25;;;;;19.07;69.91;100327.41;5038918;28;47180;-85
2022/06/20 02:57:02;;;;;;;;;33.00;30.00;;;;;18.93;69.94;100315.66;5037627;28;46302;-85
2022/06/20 02:59:32;;;;;;;;;31.25;30.50;;;;;18.93;69.93;100304.22;5053313;28;45722;-85
2022/06/20 03:02:06;;;;;;;;;34.00;30.00;;;;;18.81;69.87;100301.91;5057983;28;45614;-85
2022/06/20 03:04:37;;;;;;;;;32.75;31.75;;;;;18.92;70.38;100339.72;5052021;28;46224;-85
2022/06/20 03:07:09;;;;;;;;;35.50;31.75;;;;;18.84;70.08;100341.38;5048801;28;45658;-85
2022/06/20 03:09:39;;;;;;;;;32.00;29.50;;;;;18.78;70.49;100342.09;5052202;28;45870;-86
2022/06/20 03:12:07;;;;;;;;;33.50;30.50;;;;;18.71;70.45;100346.41;5052398;28;47147;-85
2022/06/20 03:14:46;;;;;;;;;38.00;31.00;;;;;18.68;71.13;100359.16;5047659;28;46921;-85
2022/06/20 03:17:15;;;;;;;;;33.50;30.25;;;;;18.63;70.88;100374.75;5045733;28;45927;-85
2022/06/20 03:19:45;;;;;;;;;38.25;31.75;;;;;18.62;70.92;100381.06;5053743;28;45662;-86
2022/06/20 03:22:16;;;;;;;;;31.25;30.50;;;;;18.58;70.60;100383.22;5052196;28;46695;-85
2022/06/20 03:24:43;;;;;;;;;33.75;30.50;;;;;18.59;70.66;100406.09;5044378;28;46970;-84
2022/06/20 03:27:12;;;;;;;;;37.50;33.00;;;;;18.44;70.79;100381.19;5051987;28;45618;-85
2022/06/20 03:29:40;;;;;;;;;28.25;26.50;;;;;18.51;71.09;100394.63;5041075;28;45731;-83
2022/06/20 03:32:06;;;;;;;;;33.50;29.75;;;;;18.44;70.88;100392.66;5031428;28;48698;-85
2022/06/20 03:34:32;;;;;;;;;33.00;29.00;;;;;18.46;70.87;100395.94;5048833;28;46158;-84
2022/06/20 03:37:02;;;;;;;;;34.50;27.75;;;;;18.49;70.79;100410.72;5052587;28;46019;-86
2022/06/20 03:39:28;;;;;;;;;32.25;30.25;;;;;18.41;70.80;100408.88;5050394;28;45807;-86
2022/06/20 03:41:54;;;;;;;;;35.75;29.00;;;;;18.42;70.91;100407.06;5052531;28;46749;-87
2022/06/20 03:44:49;;;;;;;;;30.00;27.75;;;;;18.44;70.82;100403.25;5048748;28;45751;-86
2022/06/20 03:47:22;;;;;;;;;34.00;31.75;;;;;18.48;70.75;100435.59;5049949;28;45648;-85
2022/06/20 03:50:01;;;;;;;;;30.00;29.00;;;;;18.47;70.86;100428.59;5033766;28;45876;-84
2022/06/20 03:52:32;;;;;;;;;30.50;27.00;;;;;18.48;71.29;100422.31;5059837;28;45809;-86
2022/06/20 03:55:14;;;;;;;;;32.00;27.50;;;;;18.42;71.29;100420.31;5049939;28;46201;-85
2022/06/20 03:57:39;;;;;;;;;28.75;27.00;;;;;18.45;70.46;100435.91;5042710;28;45885;-85
2022/06/20 04:00:18;;;;;;;;;26.50;24.75;;;;;18.37;70.63;100419.97;5041773;28;45607;-86
2022/06/20 04:02:53;;;;;;;;;27.75;26.25;;;;;18.37;71.04;100428.78;5035823;28;48674;-83
2022/06/20 04:05:27;;;;;;;;;28.50;25.75;;;;;18.37;70.79;100428.78;5045148;28;48428;-85
2022/06/20 04:08:23;;;;;;;;;29.50;25.25;;;;;18.27;71.42;100444.00;5055201;28;45833;-86
2022/06/20 04:10:59;;;;;;;;;28.00;26.00;;;;;18.31;71.22;100455.94;5045511;28;45801;-86
2022/06/20 04:13:51;;;;;;;;;30.00;27.50;;;;;18.32;71.74;100456.78;5053480;28;46470;-87
2022/06/20 04:16:39;;;;;;;;;29.25;28.25;;;;;18.31;71.30;100458.59;5052693;28;46506;-86
2022/06/20 04:19:17;;;;;;;;;29.75;27.25;;;;;18.26;71.27;100458.25;5044798;28;45905;-86
2022/06/20 04:21:56;;;;;;;;;25.25;24.25;;;;;18.24;71.07;100462.91;5052566;28;45784;-86
2022/06/20 04:24:45;;;;;;;;;26.00;24.00;;;;;18.17;71.12;100453.09;5051058;28;46268;-87
2022/06/20 04:27:25;;;;;;;;;31.00;28.50;;;;;18.19;70.94;100465.19;5052086;28;46384;-86
2022/06/20 04:29:59;;;;;;;;;26.25;24.50;;;;;18.11;71.44;100459.88;5052058;28;45781;-85
2022/06/20 04:32:42;;;;;;;;;31.00;30.25;;;;;18.12;71.24;100473.97;5036465;28;45822;-86
2022/06/20 04:35:17;;;;;;;;;30.00;27.75;;;;;18.06;71.22;100486.03;5056653;28;47135;-86
2022/06/20 04:37:50;;;;;;;;;31.25;28.50;;;;;17.94;71.38;100476.72;5064530;28;46160;-86
2022/06/20 04:40:18;;;;;;;;;27.75;27.75;;;;;17.95;71.10;100484.50;5060031;28;45666;-86
2022/06/20 04:43:01;;;;;;;;;34.00;31.75;;;;;17.83;71.42;100474.34;5057902;28;45669;-85
2022/06/20 04:45:41;;;;;;;;;26.50;26.50;;;;;17.89;70.81;100498.41;5064348;28;47258;-85
2022/06/20 04:48:15;;;;;;;;;35.25;30.00;;;;;17.82;70.64;100504.47;5075703;28;46340;-84
2022/06/20 04:50:44;;;;;;;;;30.00;28.75;;;;;17.75;71.19;100499.00;5070060;28;45555;-84
2022/06/20 04:53:14;;;;;;;;;29.25;27.75;;;;;17.80;70.65;100515.25;5067040;28;45907;-86
2022/06/20 04:55:49;;;;;;;;;27.25;24.75;;;;;17.75;70.40;100514.06;5061581;28;47690;-84
2022/06/20 04:58:19;;;;;;;;;32.75;29.50;;;;;17.71;70.70;100518.00;5059266;28;45626;-86
2022/06/20 05:00:47;;;;;;;;;34.50;31.00;;;;;17.70;70.41;100525.16;5064225;28;45964;-86
2022/06/20 05:03:41;;;;;;;;;33.50;30.50;;;;;17.68;70.97;100523.63;5060990;28;45709;-84
2022/06/20 05:06:14;;;;;;;;;28.50;27.25;;;;;17.66;71.15;100538.84;5060451;28;46419;-86
2022/06/20 05:08:48;;;;;;;;;28.00;25.25;;;;;17.62;70.96;100535.69;5064315;28;46206;-85
2022/06/20 05:11:24;;;;;;;;;30.25;28.25;;;;;17.67;70.65;100536.03;5044705;28;46145;-86
2022/06/20 05:13:54;;;;;;;;;31.75;28.75;;;;;17.65;71.16;100538.03;5060697;28;45686;-84
2022/06/20 05:16:27;;;;;;;;;34.00;29.75;;;;;17.67;70.73;100540.50;5065609;28;46911;-87
2022/06/20 05:18:59;;;;;;;;;29.50;28.00;;;;;17.69;70.64;100543.84;5071691;28;46653;-83
2022/06/20 05:21:28;;;;;;;;;27.50;26.75;;;;;17.70;70.47;100549.00;5067928;28;45872;-85
2022/06/20 05:24:05;;;;;;;;;31.00;29.00;;;;;17.67;70.88;100529.91;5058876;28;45715;-84
2022/06/20 05:26:35;;;;;;;;;31.00;28.50;;;;;17.72;70.99;100532.91;5044793;28;48844;-85
2022/06/20 05:29:06;;;;;;;;;32.75;28.50;;;;;17.59;70.90;100513.00;5062767;28;45728;-83
2022/06/20 05:31:36;;;;;;;;;28.50;26.00;;;;;17.71;70.55;100537.38;5061733;28;46104;-86
2022/06/20 05:34:30;;;;;;;;;27.75;26.75;;;;;17.72;71.18;100546.16;5074138;28;45622;-85
2022/06/20 05:37:05;;;;;;;;;29.75;27.50;;;;;17.71;70.75;100542.69;5059748;28;46901;-84
2022/06/20 05:40:02;;;;;;;;;28.00;25.00;;;;;17.71;70.45;100550.63;5039062;28;47055;-84
2022/06/20 05:42:31;;;;;;;;;24.75;24.00;;;;;17.73;70.63;100564.56;4984421;28;45849;-87
2022/06/20 05:44:56;;;;;;;;;30.00;26.00;;;;;17.70;70.86;100569.38;4996641;28;45663;-87
2022/06/20 05:47:26;;;;;;;;;23.25;20.75;;;;;17.71;70.22;100565.69;4986515;28;46527;-80
2022/06/20 05:49:58;;;;;;;;;26.50;22.50;;;;;17.84;70.53;100580.22;4983510;28;46232;-81
2022/06/20 05:52:27;;;;;;;;;22.75;21.50;;;;;17.82;69.86;100584.00;4984297;28;46494;-82
2022/06/20 05:55:02;;;;;;;;;23.50;22.25;;;;;17.81;70.13;100575.25;4979487;28;45969;-80
2022/06/20 05:57:32;;;;;;;;;29.25;23.25;;;;;17.74;70.39;100570.69;4984454;28;46094;-81
2022/06/20 06:00:13;;;;;;;;;22.25;19.75;;;;;17.85;70.17;100587.19;4979294;28;45810;-81
2022/06/20 06:02:47;;;;;;;;;22.75;21.50;;;;;17.84;69.80;100596.13;4982473;28;46032;-79
2022/06/20 06:05:30;;;;;;;;;15.50;12.75;;;;;17.73;70.20;100577.81;4980987;28;45786;-81
2022/06/20 06:08:09;;;;;;;;;19.75;18.50;;;;;17.83;69.91;100594.44;4976828;28;46513;-81
2022/06/20 06:10:42;;;;;;;;;25.50;21.75;;;;;17.75;69.83;100589.09;4986829;28;45885;-80
2022/06/20 06:13:24;;;;;;;;;22.50;21.25;;;;;17.87;69.38;100592.31;4978129;28;46789;-79
2022/06/20 06:18:55;;;;;;;;;20.50;20.00;;;;;17.89;69.41;100608.91;5015609;28;46529;-80
2022/06/20 06:21:21;;;;;;;;;24.25;20.75;;;;;17.87;69.79;100600.25;5051233;28;46218;-82
2022/06/20 06:23:48;;;;;;;;;20.75;18.00;;;;;17.95;69.08;100616.22;5055540;28;45698;-81
2022/06/20 06:26:16;;;;;;;;;18.00;17.00;;;;;17.84;69.63;100606.72;5051719;28;46450;-79
2022/06/20 06:28:43;;;;;;;;;21.50;19.50;;;;;18.01;68.86;100628.88;5058333;28;45706;-81
2022/06/20 06:31:23;;;;;;;;;21.00;17.75;;;;;18.01;68.76;100626.22;5036559;28;48186;-81
2022/06/20 06:34:02;;;;;;;;;20.25;19.00;;;;;18.00;68.75;100635.16;5053023;28;45953;-80
2022/06/20 06:36:35;;;;;;;;;16.25;15.25;;;;;17.99;68.82;100631.66;5045940;28;45743;-81
2022/06/20 06:39:14;;;;;;;;;19.25;17.25;;;;;17.91;68.35;100621.03;5051908;28;45679;-82
2022/06/20 06:41:46;;;;;;;;;19.25;17.75;;;;;17.84;68.43;100627.09;5057707;28;46255;-84
2022/06/20 06:44:42;;;;;;;;;17.75;16.75;;;;;17.88;68.81;100649.63;5052726;28;45937;-80
2022/06/20 06:47:25;;;;;;;;;18.75;16.00;;;;;17.90;68.80;100652.97;5050713;28;46095;-79
2022/06/20 06:49:56;;;;;;;;;16.75;14.75;;;;;17.88;68.67;100655.78;5066117;28;46376;-78
2022/06/20 06:52:36;;;;;;;;;17.00;14.00;;;;;17.89;68.37;100654.78;5051671;28;45647;-78
2022/06/20 06:55:24;;;;;;;;;18.50;15.50;;;;;17.88;68.27;100666.38;5051362;28;45836;-79
2022/06/20 06:57:56;;;;;;;;;17.50;16.00;;;;;17.86;68.27;100668.38;5048380;28;45799;-79
2022/06/20 07:00:40;;;;;;;;;16.75;15.00;;;;;17.85;68.43;100664.06;5037475;28;46415;-79
2022/06/20 07:03:19;;;;;;;;;19.00;17.00;;;;;17.78;67.75;100668.28;5036975;28;45468;-79
2022/06/20 07:05:52;;;;;;;;;15.75;13.50;;;;;17.66;68.13;100658.09;5034696;28;45716;-78
2022/06/20 07:11:45;;;;;;;;;16.50;15.00;;;;;17.67;67.88;100692.38;5034623;28;45979;-76
2022/06/20 07:14:18;;;;;;;;;16.75;15.50;;;;;17.65;68.29;100706.78;5034742;28;45704;-78
2022/06/20 07:16:54;;;;;;;;;20.50;16.00;;;;;17.58;67.92;100698.56;5034928;28;45640;-78
2022/06/20 07:19:20;;;;;;;;;17.50;15.25;;;;;17.53;67.84;100685.78;5034805;28;45649;-78
2022/06/20 07:21:47;;;;;;;;;19.00;16.75;;;;;17.56;68.07;100698.72;5034865;28;46494;-79
2022/06/20 07:27:43;;;;;;;;;21.25;17.00;;;;;17.53;67.96;100699.03;5034546;28;45630;-79
2022/06/20 07:30:16;;;;;;;;;12.75;11.25;;;;;17.55;68.33;100712.09;5034304;28;45799;-79
2022/06/20 07:32:49;;;;;;;;;18.25;17.50;;;;;17.54;68.27;100713.91;5034320;28;46689;-79
2022/06/20 07:35:31;;;;;;;;;19.00;18.00;;;;;17.55;67.57;100720.88;5016215;28;48188;-80
2022/06/20 07:38:10;;;;;;;;;20.00;17.00;;;;;17.45;68.25;100700.75;5034360;28;45531;-80
2022/06/20 07:44:12;;;;;;;;;16.75;14.75;;;;;17.60;68.02;100718.66;5034190;28;45598;-80
2022/06/20 07:46:44;;;;;;;;;21.75;19.50;;;;;17.53;68.47;100709.63;5034408;28;46067;-80
2022/06/20 07:49:22;;;;;;;;;20.00;18.25;;;;;17.54;67.91;100713.91;5034259;28;45896;-80
2022/06/20 07:51:55;;;;;;;;;19.75;17.75;;;;;17.55;68.27;100709.47;5034136;28;45668;-79
2022/06/20 07:54:28;;;;;;;;;18.00;16.25;;;;;17.54;68.25;100724.50;5033960;28;45730;-80
2022/06/20 07:57:26;;;;;;;;;21.00;17.25;;;;;17.63;68.26;100737.88;5032427;28;46206;-80
2022/06/20 08:00:17;;;;;;;;;16.00;16.00;;;;;17.63;68.35;100738.72;5033203;28;45915;-79
2022/06/20 08:02:53;;;;;;;;;14.00;12.00;;;;;17.58;67.97;100728.56;5034245;28;45513;-80
2022/06/20 08:05:24;;;;;;;;;17.00;15.00;;;;;17.60;68.03;100733.72;5034252;28;46802;-79
2022/06/20 08:08:32;;;;;;;;;18.00;16.75;;;;;17.62;68.07;100742.34;5034155;28;46407;-77
2022/06/20 08:11:39;;;;;;;;;18.00;16.75;;;;;17.53;67.77;100738.78;5034093;28;45677;-80
2022/06/20 08:14:02;;;;;;;;;19.75;17.25;;;;;17.42;67.76;100719.59;5034202;28;45951;-80
2022/06/20 08:16:31;;;;;;;;;16.25;13.50;;;;;17.48;68.32;100743.69;5034054;28;45646;-80
2022/06/20 08:18:58;;;;;;;;;16.00;15.00;;;;;17.47;68.60;100746.47;5033693;28;45731;-80
2022/06/20 08:21:34;;;;;;;;;15.00;13.50;;;;;17.42;68.91;100740.81;5033868;28;45761;-80
2022/06/20 08:27:50;;;;;;;;;15.50;15.00;;;;;17.39;69.16;100741.91;5033541;28;45650;-81
2022/06/20 08:30:22;;;;;;;;;16.00;15.25;;;;;17.26;68.71;100716.78;5033568;28;45548;-81
2022/06/20 08:33:16;;;;;;;;;20.25;19.25;;;;;17.28;68.48;100709.50;5033766;28;45648;-80
2022/06/20 08:35:47;;;;;;;;;21.50;18.00;;;;;17.35;68.68;100715.88;5034239;28;45669;-80
2022/06/20 08:38:46;;;;;;;;;20.75;18.75;;;;;17.43;68.48;100724.78;5033730;28;45724;-80
2022/06/20 08:44:51;;;;;;;;;22.25;19.25;;;;;17.48;68.69;100725.16;4971837;28;45733;-79
2022/06/20 08:47:54;;;;;;;;;22.75;22.00;;;;;17.49;68.10;100741.88;4972391;28;45558;-79
2022/06/20 08:50:50;;;;;;;;;24.50;22.00;;;;;17.54;68.35;100747.56;4955171;28;47697;-81
2022/06/20 08:53:36;;;;;;;;;22.00;20.00;;;;;17.58;68.00;100743.63;4972033;28;45694;-80
2022/06/20 08:56:07;;;;;;;;;23.00;21.25;;;;;17.56;67.81;100757.00;4972122;28;45893;-80
2022/06/20 08:58:36;;;;;;;;;20.25;18.25;;;;;17.61;67.54;100760.06;4972084;28;45653;-81
2022/06/20 09:01:01;;;;;;;;;26.75;22.25;;;;;17.65;67.91;100776.53;4972001;28;46940;-80
2022/06/20 09:03:45;;;;;;;;;20.25;18.25;;;;;17.68;67.69;100775.38;4971876;28;46230;-81
2022/06/20 09:06:36;;;;;;;;;24.50;21.50;;;;;17.71;67.88;100783.00;4955356;28;45906;-80
2022/06/20 09:12:42;;;;;;;;;23.75;21.50;;;;;17.69;67.16;100792.94;4932928;28;46320;-81
2022/06/20 09:15:08;;;;;;;;;26.25;20.50;;;;;17.70;67.07;100786.66;4933147;28;46291;-81
2022/06/20 09:17:38;;;;;;;;;21.00;18.50;;;;;17.70;67.38;100787.50;4941425;28;45767;-79
2022/06/20 09:20:21;;;;;;;;;22.50;22.00;;;;;17.72;66.95;100782.84;4971827;28;45515;-80
2022/06/20 09:22:56;;;;;;;;;21.25;21.25;;;;;17.73;67.20;100778.41;4971703;28;45707;-80
2022/06/20 09:28:56;;;;;;;;;19.00;18.25;;;;;17.76;67.07;100794.81;4974887;28;45786;-80
2022/06/20 09:31:29;;;;;;;;;21.50;20.25;;;;;17.80;67.15;100796.22;4974785;28;45796;-80
2022/06/20 09:34:41;;;;;;;;;20.50;19.75;;;;;17.83;66.67;100803.00;4974920;28;45604;-80
2022/06/20 09:37:35;;;;;;;;;24.25;20.25;;;;;17.88;66.79;100806.88;4974866;28;46389;-80
2022/06/20 09:40:29;;;;;;;;;20.25;20.25;;;;;17.96;66.60;100808.78;4974819;28;45708;-80
2022/06/20 09:43:19;;;;;;;;;16.25;15.25;;;;;18.01;66.37;100817.94;4974853;28;45694;-80
2022/06/20 09:46:05;;;;;;;;;20.50;19.75;;;;;18.08;66.30;100796.13;4998399;28;45651;-80
2022/06/20 09:48:54;;;;;;;;;20.50;19.50;;;;;18.16;66.38;100806.78;5035608;28;46201;-81
2022/06/20 09:51:38;;;;;;;;;20.25;19.00;;;;;18.24;66.14;100810.38;5036443;28;45703;-80
2022/06/20 09:54:22;;;;;;;;;24.00;20.75;;;;;18.33;65.63;100811.25;5036444;28;45595;-80
2022/06/20 09:57:09;;;;;;;;;23.25;22.00;;;;;18.41;65.34;100798.88;5017594;28;48347;-79
2022/06/20 09:59:34;;;;;;;;;20.75;20.75;;;;;18.49;65.52;100813.19;5036023;28;46288;-79
2022/06/20 10:02:37;;;;;;;;;24.00;21.75;;;;;18.55;65.13;100808.13;5035950;28;45437;-80
2022/06/20 10:05:36;;;;;;;;;22.50;20.25;;;;;18.60;65.03;100816.47;5036403;28;45486;-80
2022/06/20 10:08:16;;;;;;;;;23.50;21.25;;;;;18.67;65.06;100817.50;5036016;28;45620;-80
2022/06/20 10:14:22;;;;;;;;;18.50;18.50;;;;;18.69;64.63;100802.25;5045309;28;45666;-80
2022/06/20 10:16:59;;;;;;;;;20.00;19.00;;;;;18.73;64.70;100810.75;5045216;28;45595;-80
2022/06/20 10:19:36;;;;;;;;;23.00;20.50;;;;;18.77;64.17;100815.59;5041692;28;45742;-80
2022/06/20 10:22:13;;;;;;;;;27.25;25.00;;;;;18.75;64.21;100814.06;5038328;28;46102;-80
2022/06/20 10:25:03;;;;;;;;;24.25;22.00;;;;;18.85;64.23;100825.41;5035885;28;45469;-81
2022/06/20 10:31:05;;;;;;;;;25.25;22.25;;;;;18.93;64.13;100817.50;5035449;28;45957;-80
2022/06/20 10:33:59;;;;;;;;;23.75;23.00;;;;;18.97;63.66;100813.53;5035616;28;46163;-79
2022/06/20 10:36:43;;;;;;;;;21.75;20.50;;;;;18.99;63.89;100816.88;5035152;28;45701;-81
2022/06/20 10:39:24;;;;;;;;;24.00;22.50;;;;;19.02;63.76;100826.31;5036165;28;45821;-81
2022/06/20 10:45:30;;;;;;;;;21.50;21.00;;;;;19.15;63.11;100840.03;5035643;28;46098;-81
2022/06/20 10:48:17;;;;;;;;;22.25;22.25;;;;;19.17;63.00;100844.16;5035690;28;45793;-80
2022/06/20 10:50:48;;;;;;;;;21.25;19.00;;;;;19.23;62.81;100840.03;5036053;28;45738;-79
2022/06/20 10:53:30;;;;;;;;;24.50;21.50;;;;;19.27;63.04;100836.91;5035703;28;45711;-79
2022/06/20 10:56:10;;;;;;;;;24.50;22.75;;;;;19.27;62.79;100842.22;5035915;28;46194;-80
2022/06/20 10:58:38;;;;;;;;;29.00;27.00;;;;;19.36;62.77;100845.75;5035507;28;45685;-81
2022/06/20 11:01:18;;;;;;;;;22.75;21.50;;;;;19.36;62.71;100829.81;5035392;28;45761;-80
2022/06/20 11:03:49;;;;;;;;;25.50;23.75;;;;;19.46;62.64;100840.34;5035549;28;45577;-81
2022/06/20 11:06:26;;;;;;;;;29.00;26.50;;;;;19.56;62.37;100841.03;5035471;28;46233;-80
2022/06/20 11:08:55;;;;;;;;;25.50;24.25;;;;;19.62;61.77;100830.59;5035400;28;45828;-81
2022/06/20 11:11:42;;;;;;;;;27.00;23.50;;;;;19.74;62.15;100838.28;5035565;28;45637;-80
2022/06/20 11:14:15;;;;;;;;;27.50;24.00;;;;;19.78;61.59;100836.94;5036314;28;46474;-79
2022/06/20 11:16:53;;;;;;;;;27.25;24.50;;;;;19.94;61.79;100850.28;5039150;28;46417;-81
2022/06/20 11:19:23;;;;;;;;;24.75;23.25;;;;;20.03;61.89;100849.28;5039453;28;45516;-83
2022/06/20 11:21:58;;;;;;;;;23.50;22.75;;;;;20.13;61.72;100847.31;5038846;28;45606;-84
2022/06/20 11:24:39;;;;;;;;;26.00;24.75;;;;;20.25;61.72;100856.63;5037140;28;45732;-84
2022/06/20 11:27:07;;;;;;;;;27.00;24.50;;;;;20.34;61.69;100858.34;5018847;28;47225;-84
2022/06/20 11:30:01;;;;;;;;;26.00;24.50;;;;;20.42;61.27;100849.50;5037906;28;45749;-83
2022/06/20 11:32:35;;;;;;;;;26.50;24.25;;;;;20.53;61.12;100847.34;5019974;28;45467;-84
2022/06/20 11:35:14;;;;;;;;;26.75;25.50;;;;;20.63;60.48;100836.50;5038117;28;45737;-80
2022/06/20 11:38:08;;;;;;;;;27.00;25.75;;;;;20.73;60.14;100841.69;5038221;28;46158;-79
2022/06/20 11:40:40;;;;;;;;;25.00;23.75;;;;;20.78;59.87;100852.66;5020406;28;45866;-79
2022/06/20 11:43:14;;;;;;;;;21.75;19.75;;;;;20.82;59.36;100856.66;5037653;28;45473;-82
2022/06/20 11:46:15;;;;;;;;;23.00;21.50;;;;;20.83;59.24;100847.66;5037743;28;45726;-81
2022/06/20 11:49:00;;;;;;;;;22.50;22.00;;;;;20.91;59.32;100843.13;5035561;28;46244;-83
2022/06/20 11:52:00;;;;;;;;;25.25;23.50;;;;;21.00;59.00;100843.13;5036885;28;45809;-82
2022/06/20 11:54:46;;;;;;;;;24.00;20.75;;;;;21.03;58.92;100838.28;4956684;28;45633;-80
2022/06/20 12:00:46;;;;;;;;;20.00;19.00;;;;;21.15;58.35;100823.63;4955833;28;45491;-83
2022/06/20 12:03:38;;;;;;;;;17.50;16.50;;;;;21.27;58.10;100827.56;4955666;28;45729;-83
2022/06/20 12:06:25;;;;;;;;;21.50;21.00;;;;;21.31;58.00;100820.06;4955015;28;45700;-82
2022/06/20 12:09:02;;;;;;;;;24.00;21.25;;;;;21.38;57.41;100837.00;4953824;28;45793;-82
2022/06/20 12:15:20;;;;;;;;;14.00;13.00;;;;;21.50;57.44;100827.63;4954364;28;45632;-81
2022/06/20 12:18:11;;;;;;;;;20.50;17.00;;;;;21.51;56.86;100833.78;4954946;28;45655;-79
2022/06/20 12:23:34;;;;;;;;;17.75;16.25;;;;;21.56;56.46;100829.59;4956958;28;45598;-79
2022/06/20 12:26:03;;;;;;;;;16.00;15.25;;;;;21.59;56.10;100818.56;4959588;28;45582;-79
2022/06/20 12:31:54;;;;;;;;;14.00;13.25;;;;;21.69;56.56;100818.38;4972353;28;46072;-81
2022/06/20 12:35:15;;;;;;;;;14.50;14.25;;;;;21.70;56.55;100812.84;4976046;28;46017;-81
2022/06/20 12:37:48;;;;;;;;;17.50;15.75;;;;;21.84;55.94;100823.78;4900457;29;45781;-83
2022/06/20 12:40:31;;;;;;;;;15.50;13.25;;;;;21.86;55.60;100808.44;4901187;29;45599;-83
2022/06/20 12:46:21;;;;;;;;;16.25;14.50;;;;;21.99;55.51;100814.84;4902401;29;45730;-80
2022/06/20 12:49:01;;;;;;;;;12.00;11.00;;;;;22.04;54.76;100811.66;4902074;29;45710;-79